EGNE weather

Retford Gamston Airport
Gamston, England, United Kingdom

Public forecast

Using degrees Celsius for public forecast. Weather courtesy of forecast.io.

METAR (pilot weather report)

Closest report is Robin Hood Doncaster Sheffield Airport, 12.2 nm (22.6 km) N. Retrieved 2019/04/23 15:20 UTC (18 minutes ago):

EGCN 231520Z 06010KT 030V090 CAVOK 17/07 Q0999

TAF (pilot weather forecast)

Closest forecast is Robin Hood Doncaster Sheffield Airport, 12.2 nm (22.6 km) N. Retrieved 2019/04/23 12:00 UTC (4 hours ago):

TAF EGCN 231106Z 2312/2412 08008KT 9000 NSC BECMG 2312/2315 CAVOK PROB30 TEMPO 2321/2409 9000 BKN014